SAVC/CRD METAR and TAF weather

Enter ICAO airport designator
Station Type Date Time Source
SAVC METAR 2019/12/07 00:00 UTC NOAA

SAVC 070000Z 07009KT 9999 FEW035 SCT200 18/06 Q1012


Station Type Date Time Source
SAVC Decoded METAR 2019/12/07 00:00 UTC NOAA

Comodoro Rivadavia Aerodrome, Argentina (SAVC) 45-47S 067-30W 46M
Dec 06, 2019 - 07:00 PM EST / 2019.12.07 0000 UTC
Wind: from the ENE (070 degrees) at 10 MPH (9 KT):0
Visibility: greater than 7 mile(s):0
Sky conditions: partly cloudy
Temperature: 64 F (18 C)
Dew Point: 42 F (6 C)
Relative Humidity: 45%
Pressure (altimeter): 29.88 in. Hg (1012 hPa)
ob: SAVC 070000Z 07009KT 9999 FEW035 SCT200 18/06 Q1012
cycle: 0

Station Type Date Time Source
SAVC TAF 2019/12/07 00:04 UTC NOAA

TAF SAVC 062300Z 0700/0724 05010KT CAVOK TX21/0719Z TN13/0710Z
BECMG 0703/0705 34010KT
BECMG 0710/0712 20015KT
BECMG 0717/0719 09005KT 9999 SCT030

Example: see airport list